Columbia Metropolitan Airport Columbia US
ICAO: KCAE
IATA: CAE
Category: Large
Scheduled Services: Yes

Elevation: 236 ft
TransAlt. 18000 ft.

Airport Communications:
APP/DEP:124.15
ATIS:120.15
CLNC DEL:119.75
GND:121.9
ANDERSON RDO:122.65
TWR:119.5
UNICOM:122.95

KCAE Zoom In..

If you have problems with the map follow the link
https://www.worldairports.se/pages/airport.php?
ICAO=KCAE

Runways:

(A) RW 05 length 8001 ft width 150 ft
ILS 108.95 / hdg 50

(B) RW 11 length 8601 ft width 150 ft
ILS 110.30 / hdg 110

(C) RW 23 length 8001 ft width 150 ft
---- / hdg 230

(D) RW 29 length 8601 ft width 150 ft
ILS 108.30 / hdg 290

Location; KCAE
Day. 19 / Time. 17.56 Zulu
* Altimeter: 29.96
* Temperature: 14° c. 57.2°f.
* Wind from: 300° Speed 12 kn.
Dewpoint: 03° c.
Visibility: 10 Statute Miles.
Clouds: Few 5000 ft.
Clouds: Few 9000 ft.
Clouds: Broken 22000 ft.

KCAE 191756Z 30012KT 10SM FEW050 FEW090 BKN220 14/03 A2996 RMK AO2 SLP143 60000 T01390033 10150 20122 58010


Wind From 300°
Speed 12 kn.

 
 
jpsmedia worldairports.se 2020   terms of use